Terminal Aerodrome Forecast
Issued by NWS Raleigh/Durham, NC

Home | Current Version | Previous Version | Text Only | Print | Product List | Glossary On
Versions: 1 2 3 4 5 6 7 8 9 10 11 12 13 14 15 16 17 18 19 20 21 22 23 24 25 26 27
000
FTUS42 KRAH 071745
TAFGSO
TAF
KGSO 071745Z 0718/0818 35004KT P6SM SCT250
     FM080300 VRB03KT P6SM OVC025
      TEMPO 0805/0808 BKN015
     FM080800 14004KT P6SM SCT007 OVC015 PROB30 0809/0813 4SM -RA
      BKN007
     FM081400 33004KT P6SM SCT050=

USA.gov is the U.S. government's official web portal to all federal, state and local government web resources and services.